Spanish Fork, Utah
Current Conditions -  °F | °C
As of 8:54 PM on Tuesday 21 Oct 2014 (Local Time) from KPVU Reporting Station
Broken Clouds Broken Clouds  
Wind Chill: 54°   Ceiling: 8000
Heat Index: 54°   Visibility: 10mi
Dew Point: 30°   Wind: 12mph
Humidity: 41%   Direction: 310°NW
Pressure: 30.02"   Gusts: 17mph
Location:  40.11°N, 111.65°W
Report Text: KPVU 220254Z 31010G15KT 10SM BKN080 12/M01 A3002 RMK LAST
Loading
Personal Weather Stations






























Interactive Weather Map New forecast layout! Learn more

10-Day Weather Forecast

Advertisements
Track Severe Weather on mobile